Time;durP1;ratioP1;P1;durP2;ratioP2;P2;SDS_P1;SDS_P2;PMS_P1;PMS_P2;Temp;Humidity;BMP_temperature;BMP_pressure;BME280_temperature;BME280_humidity;BME280_pressure;Samples;Min_cycle;Max_cycle;Signal;HPM_P1;HPM_P2
2021/04/11 00:00:36;;;;;;;35.08;24.13;;;;;;;9.18;38.42;100723.34;4994170;28;97162;-74
2021/04/11 00:03:03;;;;;;;37.53;25.95;;;;;;;9.21;38.45;100718.09;4991224;28;101040;-73
2021/04/11 00:05:31;;;;;;;39.85;25.88;;;;;;;9.18;38.41;100718.03;4974475;28;97768;-74
2021/04/11 00:07:58;;;;;;;40.45;25.75;;;;;;;9.15;38.57;100710.00;4993493;28;97585;-73
2021/04/11 00:10:29;;;;;;;36.50;24.40;;;;;;;9.15;38.65;100702.91;4992377;28;98833;-74
2021/04/11 00:12:56;;;;;;;37.72;26.35;;;;;;;9.09;38.58;100699.22;4989577;28;98121;-74
2021/04/11 00:15:24;;;;;;;43.22;27.50;;;;;;;9.07;38.56;100698.28;5003079;28;97215;-73
2021/04/11 00:17:51;;;;;;;37.15;26.17;;;;;;;9.06;38.82;100683.22;4978290;28;97353;-73
2021/04/11 00:20:18;;;;;;;38.90;26.58;;;;;;;9.08;38.70;100687.69;4981945;28;96800;-73
2021/04/11 00:22:45;;;;;;;39.95;26.83;;;;;;;9.06;38.69;100678.78;4990648;28;97644;-73
2021/04/11 00:25:16;;;;;;;43.10;27.85;;;;;;;9.03;38.93;100669.84;5031209;27;98992;-72
2021/04/11 00:27:43;;;;;;;38.25;25.63;;;;;;;9.03;38.81;100667.19;4994441;28;97182;-74
2021/04/11 00:30:12;;;;;;;39.08;26.30;;;;;;;9.04;38.87;100661.91;4996673;28;97764;-71
2021/04/11 00:32:41;;;;;;;40.95;27.77;;;;;;;9.04;38.99;100661.91;4974011;28;100431;-72
2021/04/11 00:35:09;;;;;;;40.03;25.73;;;;;;;9.02;38.92;100668.06;4989119;28;97868;-73
2021/04/11 00:37:36;;;;;;;37.50;26.67;;;;;;;9.05;38.86;100669.03;4990166;28;98057;-73
2021/04/11 00:40:07;;;;;;;40.40;26.95;;;;;;;9.02;38.96;100649.50;4992445;28;97416;-72
2021/04/11 00:42:36;;;;;;;40.55;28.30;;;;;;;8.99;38.94;100649.38;4975839;28;98373;-71
2021/04/11 00:45:11;;;;;;;39.28;28.20;;;;;;;8.97;39.39;100643.19;4988889;28;97868;-73
2021/04/11 00:47:39;;;;;;;39.17;26.58;;;;;;;8.94;39.00;100635.13;5026825;27;97275;-72
2021/04/11 00:50:08;;;;;;;44.13;27.77;;;;;;;8.95;39.00;100632.50;5006583;27;97111;-72
2021/04/11 00:52:35;;;;;;;41.05;27.73;;;;;;;8.96;39.10;100630.75;4994903;28;98402;-71
2021/04/11 00:55:03;;;;;;;39.00;25.88;;;;;;;8.96;39.15;100626.34;4998505;28;99662;-72
2021/04/11 00:57:30;;;;;;;40.05;27.05;;;;;;;8.94;39.09;100627.16;4974443;28;97770;-73
2021/04/11 00:59:57;;;;;;;40.67;27.70;;;;;;;8.94;39.05;100632.47;4990830;28;97260;-73
2021/04/11 01:02:24;;;;;;;41.28;27.70;;;;;;;8.93;39.11;100623.59;4997971;28;97143;-74
2021/04/11 01:04:52;;;;;;;38.25;26.13;;;;;;;8.94;39.32;100619.19;4995868;28;99228;-73
2021/04/11 01:07:19;;;;;;;39.53;27.00;;;;;;;8.92;39.08;100615.59;4994309;28;96655;-73
2021/04/11 01:09:51;;;;;;;38.72;27.35;;;;;;;8.93;39.15;100615.63;4976351;28;96871;-72
2021/04/11 01:12:20;;;;;;;39.75;27.35;;;;;;;8.91;39.15;100601.47;4990185;28;99891;-73
2021/04/11 01:14:48;;;;;;;42.20;28.73;;;;;;;8.86;39.43;100599.56;4993541;28;97836;-73
2021/04/11 01:17:20;;;;;;;40.45;27.50;;;;;;;8.87;39.21;100596.03;4982148;28;97966;-74
2021/04/11 01:19:52;;;;;;;38.22;26.25;;;;;;;8.89;39.22;100591.66;4990924;28;97498;-74
2021/04/11 01:22:31;;;;;;;40.88;27.33;;;;;;;8.90;39.30;100585.47;4972434;28;98856;-74
2021/04/11 01:25:05;;;;;;;36.55;26.65;;;;;;;8.93;39.23;100567.88;4986636;28;99755;-74
2021/04/11 01:27:33;;;;;;;43.20;28.40;;;;;;;8.93;39.02;100572.31;4989751;28;97087;-73
2021/04/11 01:30:09;;;;;;;40.13;27.38;;;;;;;8.98;39.37;100565.34;4989324;28;97047;-73
2021/04/11 01:32:36;;;;;;;47.92;28.73;;;;;;;8.97;38.96;100553.81;4990321;28;98764;-73
2021/04/11 01:35:06;;;;;;;40.38;28.50;;;;;;;8.96;39.04;100551.13;4989096;28;99811;-74
2021/04/11 01:37:33;;;;;;;42.80;28.25;;;;;;;8.98;39.09;100544.13;4989349;28;96900;-74
2021/04/11 01:40:01;;;;;;;40.30;28.05;;;;;;;8.99;39.27;100543.22;4991841;28;96878;-74
2021/04/11 01:42:29;;;;;;;41.45;26.85;;;;;;;8.95;39.35;100533.44;4995929;28;97611;-73
2021/04/11 01:44:56;;;;;;;42.55;29.00;;;;;;;8.95;39.36;100533.44;4973358;28;100976;-74
2021/04/11 01:47:24;;;;;;;43.60;29.00;;;;;;;8.86;39.36;100533.22;4994503;28;97601;-73
2021/04/11 01:49:51;;;;;;;41.63;27.20;;;;;;;8.87;39.40;100535.91;4994526;28;97147;-74
2021/04/11 01:52:21;;;;;;;45.15;29.02;;;;;;;8.90;39.47;100541.28;4990330;28;98039;-73
2021/04/11 01:54:48;;;;;;;43.33;28.88;;;;;;;8.95;39.45;100517.50;4994078;28;97938;-74
2021/04/11 01:57:20;;;;;;;40.58;28.60;;;;;;;8.91;39.55;100520.94;4988470;28;96774;-73
2021/04/11 01:59:48;;;;;;;38.17;27.70;;;;;;;8.92;39.57;100528.03;4991128;28;97494;-73
2021/04/11 02:02:17;;;;;;;40.35;27.52;;;;;;;8.94;39.31;100513.03;4987938;28;99201;-73
2021/04/11 02:04:45;;;;;;;41.45;27.58;;;;;;;8.97;39.31;100510.50;4972653;28;99136;-73
2021/04/11 02:07:14;;;;;;;39.17;27.52;;;;;;;8.99;39.44;100509.63;4973556;28;97399;-72
2021/04/11 02:09:48;;;;;;;42.50;29.52;;;;;;;9.03;39.41;100500.00;5024815;27;96701;-72
2021/04/11 02:12:32;;;;;;;36.92;27.52;;;;;;;9.02;39.51;100498.22;4992678;28;97946;-73
2021/04/11 02:15:19;;;;;;;43.08;27.42;;;;;;;8.98;39.53;100501.66;5005106;28;98786;-73
2021/04/11 02:17:47;;;;;;;38.40;26.65;;;;;;;9.00;39.44;100494.63;4990646;28;97287;-72
2021/04/11 02:20:15;;;;;;;41.80;27.45;;;;;;;8.97;39.55;100494.56;4989978;28;98400;-72
2021/04/11 02:22:45;;;;;;;46.13;29.55;;;;;;;8.96;39.54;100487.44;4988742;28;97602;-74
2021/04/11 02:25:15;;;;;;;43.00;27.92;;;;;;;8.98;39.44;100496.34;5005276;28;97869;-74
2021/04/11 02:27:46;;;;;;;42.53;29.20;;;;;;;8.96;39.67;100487.44;4972371;28;97884;-72
2021/04/11 02:30:17;;;;;;;44.13;29.10;;;;;;;8.97;39.69;100484.81;5013182;28;96834;-73
2021/04/11 02:32:44;;;;;;;39.53;28.67;;;;;;;9.03;39.63;100489.38;4973587;28;99341;-72
2021/04/11 02:35:14;;;;;;;41.35;27.70;;;;;;;9.04;39.64;100489.41;4972174;28;100480;-73
2021/04/11 02:37:43;;;;;;;43.50;28.23;;;;;;;9.01;39.66;100484.03;4988349;28;97438;-73
2021/04/11 02:40:17;;;;;;;42.05;28.13;;;;;;;9.03;39.68;100484.97;4977494;28;96909;-73
2021/04/11 02:42:46;;;;;;;41.95;28.52;;;;;;;9.07;39.59;100489.50;4972210;28;98884;-73
2021/04/11 02:45:19;;;;;;;42.00;28.15;;;;;;;9.13;39.44;100486.94;4971199;28;100315;-73
2021/04/11 02:47:52;;;;;;;38.90;27.27;;;;;;;9.15;39.75;100482.56;4974507;28;97936;-73
2021/04/11 02:50:20;;;;;;;43.80;27.33;;;;;;;9.21;39.40;100480.06;4987975;28;97163;-74
2021/04/11 02:52:52;;;;;;;42.83;28.73;;;;;;;9.25;39.45;100475.72;5003815;28;99920;-73
2021/04/11 02:55:19;;;;;;;41.10;28.40;;;;;;;9.27;39.31;100478.41;5009656;28;100883;-73
2021/04/11 02:57:54;;;;;;;39.80;27.80;;;;;;;9.30;39.49;100474.03;4989543;28;96840;-74
2021/04/11 03:00:23;;;;;;;42.35;28.83;;;;;;;9.30;39.38;100468.75;4975604;28;97159;-73
2021/04/11 03:02:55;;;;;;;39.20;27.83;;;;;;;9.32;39.36;100466.13;4974351;28;99129;-73
2021/04/11 03:05:24;;;;;;;40.05;28.73;;;;;;;9.28;39.44;100465.16;4971053;28;100289;-73
2021/04/11 03:07:53;;;;;;;39.03;27.73;;;;;;;9.30;39.64;100468.75;4991416;28;96808;-73
2021/04/11 03:10:37;;;;;;;44.88;28.55;;;;;;;9.28;39.60;100469.59;4973440;28;96930;-73
2021/04/11 03:13:05;;;;;;;43.90;29.10;;;;;;;9.26;39.48;100461.59;4972613;28;100668;-74
2021/04/11 03:15:34;;;;;;;41.15;28.90;;;;;;;9.28;39.56;100462.50;4991274;28;98418;-74
2021/04/11 03:18:03;;;;;;;42.90;29.83;;;;;;;9.28;39.44;100451.00;4990538;28;97397;-73
2021/04/11 03:20:35;;;;;;;40.10;27.80;;;;;;;9.31;39.39;100451.06;4990953;28;97158;-74
2021/04/11 03:23:18;;;;;;;42.83;28.65;;;;;;;9.31;39.58;100451.97;5010280;28;99892;-74
2021/04/11 03:25:51;;;;;;;43.60;29.35;;;;;;;9.34;39.53;100443.13;4975077;28;99391;-74
2021/04/11 03:28:21;;;;;;;40.97;28.35;;;;;;;9.32;39.48;100443.13;4972884;28;97318;-74
2021/04/11 03:31:00;;;;;;;39.75;27.70;;;;;;;9.33;39.46;100439.63;5001208;28;96957;-74
2021/04/11 03:33:28;;;;;;;41.22;28.73;;;;;;;9.35;39.32;100436.97;4979308;28;101695;-74
2021/04/11 03:35:56;;;;;;;43.13;28.63;;;;;;;9.30;39.34;100428.91;5011844;28;98001;-74
2021/04/11 03:38:25;;;;;;;43.33;28.60;;;;;;;9.30;39.55;100431.56;4981067;28;96883;-74
2021/04/11 03:40:55;;;;;;;40.33;27.90;;;;;;;9.29;39.57;100435.09;4993071;28;96921;-73
2021/04/11 03:43:27;;;;;;;41.53;28.55;;;;;;;9.29;39.63;100429.78;4996763;28;100113;-74
2021/04/11 03:45:55;;;;;;;42.35;27.88;;;;;;;9.28;39.57;100430.63;4992900;28;98454;-74
2021/04/11 03:48:27;;;;;;;41.22;27.90;;;;;;;9.27;39.70;100430.59;4993245;28;96691;-74
2021/04/11 03:50:59;;;;;;;39.28;27.05;;;;;;;9.27;39.54;100426.19;4997534;28;97625;-73
2021/04/11 03:53:35;;;;;;;43.35;30.00;;;;;;;9.28;39.79;100433.28;5005969;28;97837;-73
2021/04/11 03:56:07;;;;;;;44.53;29.23;;;;;;;9.26;39.74;100435.03;4978384;28;97410;-73
2021/04/11 03:58:40;;;;;;;41.75;28.38;;;;;;;9.28;39.92;100443.91;4976380;28;96992;-73
2021/04/11 04:01:20;;;;;;;39.67;27.58;;;;;;;9.31;39.61;100428.06;4992503;28;97997;-73
2021/04/11 04:03:50;;;;;;;40.35;29.13;;;;;;;9.33;39.57;100426.34;4980089;28;100730;-73
2021/04/11 04:06:21;;;;;;;42.17;29.45;;;;;;;9.32;39.59;100428.97;4991411;28;97842;-73
2021/04/11 04:08:49;;;;;;;42.85;29.92;;;;;;;9.32;39.52;100431.63;4972016;28;98069;-73
2021/04/11 04:11:34;;;;;;;40.85;28.17;;;;;;;9.32;39.88;100429.84;5022165;27;97518;-73
2021/04/11 04:14:14;;;;;;;40.67;28.10;;;;;;;9.28;40.02;100438.59;4988598;28;99873;-73
2021/04/11 04:16:54;;;;;;;43.30;28.90;;;;;;;9.32;39.75;100432.50;4991468;28;98769;-72
2021/04/11 04:19:28;;;;;;;43.58;27.80;;;;;;;9.31;39.65;100433.38;4972023;28;97050;-73
2021/04/11 04:22:08;;;;;;;36.58;27.35;;;;;;;9.32;39.94;100435.16;4974404;28;97640;-73
2021/04/11 04:24:50;;;;;;;42.25;27.83;;;;;;;9.35;39.49;100432.56;5013499;27;100435;-72
2021/04/11 04:27:39;;;;;;;42.53;28.73;;;;;;;9.35;39.65;100429.94;5019402;28;99217;-73
2021/04/11 04:30:21;;;;;;;45.00;29.05;;;;;;;9.37;39.88;100428.16;5025349;27;97138;-73
2021/04/11 04:33:18;;;;;;;41.15;28.00;;;;;;;9.41;40.01;100430.03;4994241;28;97039;-74
2021/04/11 04:35:49;;;;;;;43.38;29.50;;;;;;;9.42;39.62;100423.88;5025937;27;98074;-73
2021/04/11 04:38:24;;;;;;;36.00;26.45;;;;;;;9.44;39.30;100424.81;4995557;28;97717;-74
2021/04/11 04:41:06;;;;;;;42.13;29.25;;;;;;;9.45;39.82;100425.66;4974780;28;97546;-73
2021/04/11 04:43:47;;;;;;;39.10;27.52;;;;;;;9.41;39.76;100423.84;4993012;28;97204;-73
2021/04/11 04:46:18;;;;;;;40.80;28.15;;;;;;;9.42;39.57;100418.56;4990834;28;99206;-76
2021/04/11 04:48:53;;;;;;;41.45;28.70;;;;;;;9.45;39.61;100425.66;4995249;28;97188;-75
2021/04/11 04:51:26;;;;;;;39.75;28.35;;;;;;;9.42;39.60;100421.22;4997956;28;96858;-75
2021/04/11 04:54:04;;;;;;;41.47;28.23;;;;;;;9.44;39.59;100416.81;4992142;28;97136;-75
2021/04/11 04:56:37;;;;;;;35.95;26.63;;;;;;;9.47;39.45;100410.66;4993439;28;99792;-75
2021/04/11 04:59:10;;;;;;;38.20;27.58;;;;;;;9.47;39.40;100414.25;4986846;28;101112;-76
2021/04/11 05:01:45;;;;;;;41.28;29.23;;;;;;;9.47;39.44;100413.31;4989876;28;98194;-75
2021/04/11 05:04:19;;;;;;;40.78;28.42;;;;;;;9.45;39.55;100421.25;4975068;28;97741;-75
2021/04/11 05:06:55;;;;;;;39.88;28.88;;;;;;;9.47;39.51;100414.25;5030482;27;98952;-76
2021/04/11 05:09:37;;;;;;;39.38;26.83;;;;;;;9.53;39.47;100419.69;4989061;28;99345;-76
2021/04/11 05:12:20;;;;;;;40.47;28.77;;;;;;;9.54;39.35;100415.25;5016652;27;97119;-75
2021/04/11 05:14:51;;;;;;;39.08;27.20;;;;;;;9.54;39.40;100423.22;4976924;28;97762;-76
2021/04/11 05:17:23;;;;;;;41.20;27.23;;;;;;;9.59;39.39;100414.47;4995787;28;99426;-74
2021/04/11 05:19:55;;;;;;;34.75;25.92;;;;;;;9.61;39.42;100418.06;4977749;28;99703;-75
2021/04/11 05:22:47;;;;;;;39.35;29.27;;;;;;;9.63;39.36;100423.41;4978014;28;97339;-75
2021/04/11 05:25:28;;;;;;;40.47;27.73;;;;;;;9.65;39.43;100425.22;4976580;28;97054;-74
2021/04/11 05:28:02;;;;;;;38.33;26.70;;;;;;;9.63;39.44;100415.44;4977160;28;98434;-75
2021/04/11 05:30:32;;;;;;;40.53;28.63;;;;;;;9.68;39.26;100417.31;4980697;28;98244;-74
2021/04/11 05:33:00;;;;;;;38.17;26.80;;;;;;;9.68;39.16;100404.03;4975551;28;99316;-75
2021/04/11 05:35:28;;;;;;;37.20;27.38;;;;;;;9.75;39.15;100410.38;4995297;28;97636;-74
2021/04/11 05:38:05;;;;;;;69.53;39.13;;;;;;;9.80;39.40;100409.59;4992754;28;98623;-74
2021/04/11 05:40:35;;;;;;;45.05;29.55;;;;;;;9.81;39.25;100403.38;4990785;28;99429;-74
2021/04/11 05:43:05;;;;;;;38.70;26.52;;;;;;;9.83;39.17;100400.75;4990513;28;96957;-75
2021/04/11 05:45:36;;;;;;;38.90;27.05;;;;;;;9.74;39.30;100396.19;4991141;28;96766;-74
2021/04/11 05:48:12;;;;;;;42.45;28.25;;;;;;;9.74;39.54;100408.56;4991966;28;98071;-74
2021/04/11 05:50:43;;;;;;;39.22;27.98;;;;;;;9.70;39.44;100404.09;4991443;28;97657;-74
2021/04/11 05:53:12;;;;;;;39.60;26.30;;;;;;;9.68;39.49;100406.69;4992580;28;97091;-74
2021/04/11 05:55:41;;;;;;;40.33;26.40;;;;;;;9.73;39.37;100407.69;4994817;28;97752;-74
2021/04/11 05:58:13;;;;;;;41.75;30.70;;;;;;;9.78;39.53;100406.00;4989878;28;98076;-74
2021/04/11 06:00:44;;;;;;;40.83;30.00;;;;;;;9.81;39.47;100402.53;4989798;28;98678;-75
2021/04/11 06:03:17;;;;;;;48.35;31.50;;;;;;;9.86;39.50;100393.72;5028357;27;97822;-75
2021/04/11 06:05:50;;;;;;;39.90;27.30;;;;;;;9.90;39.29;100392.91;4988810;28;97812;-75
2021/04/11 06:08:23;;;;;;;34.80;26.55;;;;;;;9.92;39.25;100391.19;4994153;28;98998;-74
2021/04/11 06:10:56;;;;;;;34.33;24.90;;;;;;;9.94;39.26;100389.47;4990305;28;99232;-77
2021/04/11 06:13:26;;;;;;;37.33;25.80;;;;;;;9.97;39.19;100386.84;4994642;28;97248;-75
2021/04/11 06:15:56;;;;;;;35.63;26.88;;;;;;;10.02;39.20;100385.19;4991087;28;96949;-76
2021/04/11 06:18:23;;;;;;;34.85;26.30;;;;;;;10.07;38.93;100388.81;4994733;28;97936;-75
2021/04/11 06:20:51;;;;;;;35.35;25.25;;;;;;;10.12;38.99;100383.53;5027167;27;98328;-76
2021/04/11 06:23:24;;;;;;;34.85;26.75;;;;;;;10.16;39.14;100393.38;4996407;28;96815;-76
2021/04/11 06:25:56;;;;;;;41.42;26.17;;;;;;;10.23;39.02;100395.25;5009172;28;98281;-74
2021/04/11 06:28:30;;;;;;;57.22;36.55;;;;;;;10.25;39.09;100397.97;4986775;28;98981;-75
2021/04/11 06:31:03;;;;;;;43.88;31.65;;;;;;;10.30;38.96;100394.50;4988953;28;99135;-74
2021/04/11 06:33:32;;;;;;;39.28;26.05;;;;;;;10.34;39.07;100409.63;5018655;27;98447;-74
2021/04/11 06:36:03;;;;;;;35.30;26.23;;;;;;;10.39;38.94;100401.72;4985264;28;98029;-74
2021/04/11 06:38:35;;;;;;;36.35;25.75;;;;;;;10.43;39.18;100403.59;4985864;28;98462;-76
2021/04/11 06:41:37;;;;;;;39.38;26.15;;;;;;;10.49;39.52;100401.94;4993079;28;99385;-75
2021/04/11 06:44:23;;;;;;;33.30;25.48;;;;;;;10.55;39.36;100395.81;4979937;28;97108;-74
2021/04/11 06:47:03;;;;;;;31.42;24.23;;;;;;;10.59;39.04;100389.66;4989002;28;97689;-75
2021/04/11 06:49:51;;;;;;;35.63;25.65;;;;;;;10.65;39.38;100393.28;4991652;28;97826;-73
2021/04/11 06:52:30;;;;;;;33.50;24.52;;;;;;;10.73;39.09;100385.44;4990784;28;98787;-73
2021/04/11 06:55:10;;;;;;;35.33;25.33;;;;;;;10.79;39.03;100375.78;4972347;28;98237;-73
2021/04/11 06:57:44;;;;;;;36.45;24.85;;;;;;;10.85;38.92;100370.50;5006874;28;97749;-73
2021/04/11 07:00:46;;;;;;;95.78;50.55;;;;;;;10.93;39.89;100370.63;4993674;28;99082;-74
2021/04/11 07:04:01;;;;;;;36.72;26.17;;;;;;;10.97;39.29;100364.47;4959971;28;100322;-74
2021/04/11 07:06:49;;;;;;;32.78;24.15;;;;;;;11.07;38.96;100371.69;4996825;28;96940;-73
2021/04/11 07:09:29;;;;;;;35.33;25.00;;;;;;;11.12;38.91;100368.19;4998820;28;97149;-73
2021/04/11 07:12:18;;;;;;;30.65;23.25;;;;;;;11.21;38.71;100367.44;4991822;28;98622;-74
2021/04/11 07:15:00;;;;;;;35.17;24.73;;;;;;;11.26;38.55;100363.06;4995181;28;98481;-74
2021/04/11 07:17:50;;;;;;;29.05;23.77;;;;;;;11.35;38.79;100373.84;5000348;28;97513;-74
2021/04/11 07:20:55;;;;;;;32.03;23.17;;;;;;;11.43;38.99;100358.84;4992922;28;97244;-74
2021/04/11 07:23:47;;;;;;;32.83;23.35;;;;;;;11.47;39.10;100371.31;4994228;28;99153;-75
2021/04/11 07:26:36;;;;;;;34.65;24.33;;;;;;;11.56;38.95;100371.41;4992771;27;97662;-74
2021/04/11 07:29:27;;;;;;;29.00;22.38;;;;;;;11.64;39.01;100363.50;4987726;28;97113;-74
2021/04/11 07:32:25;;;;;;;33.28;25.85;;;;;;;11.77;38.83;100366.31;4995392;28;97937;-75
2021/04/11 07:34:59;;;;;;;82.25;47.20;;;;;;;11.82;38.27;100353.91;4994423;28;100500;-74
2021/04/11 07:37:34;;;;;;;74.78;48.38;;;;;;;11.89;38.36;100350.41;4977263;28;98601;-75
2021/04/11 07:40:10;;;;;;;36.72;26.60;;;;;;;11.94;38.23;100353.13;4991624;28;98784;-75
2021/04/11 07:42:50;;;;;;;32.00;23.50;;;;;;;12.02;38.32;100356.75;4993203;28;97349;-74
2021/04/11 07:45:27;;;;;;;32.03;23.67;;;;;;;12.06;38.41;100354.13;5002677;28;99262;-74
2021/04/11 07:48:06;;;;;;;27.35;22.30;;;;;;;12.17;38.44;100351.56;4995922;28;98634;-73
2021/04/11 07:50:55;;;;;;;35.13;22.35;;;;;;;12.23;38.55;100350.72;4993482;28;96966;-75
2021/04/11 07:53:38;;;;;;;29.05;22.25;;;;;;;12.28;38.51;100341.88;4992813;28;97579;-74
2021/04/11 07:56:19;;;;;;;26.08;21.45;;;;;;;12.34;38.26;100362.38;4990795;28;99029;-74
2021/04/11 07:59:29;;;;;;;25.90;20.70;;;;;;;12.42;38.58;100352.66;4992511;28;99411;-72
2021/04/11 08:02:22;;;;;;;27.05;19.08;;;;;;;12.52;38.68;100358.06;4993027;28;98153;-73
2021/04/11 08:05:08;;;;;;;29.85;21.13;;;;;;;12.59;38.26;100357.22;4991730;28;97789;-72
2021/04/11 08:07:50;;;;;;;27.20;21.63;;;;;;;12.71;38.34;100354.59;4976429;28;101005;-72
2021/04/11 08:10:32;;;;;;;26.90;20.80;;;;;;;12.75;38.13;100363.50;4991778;28;97765;-72
2021/04/11 08:13:21;;;;;;;27.52;20.48;;;;;;;12.92;38.20;100370.75;4991061;28;97848;-73
2021/04/11 08:15:53;;;;;;;28.95;21.35;;;;;;;13.00;37.62;100370.84;4986617;28;97928;-74
2021/04/11 08:18:26;;;;;;;24.63;19.02;;;;;;;13.07;37.62;100369.97;4971830;28;99091;-74
2021/04/11 08:21:07;;;;;;;27.75;19.88;;;;;;;13.16;38.05;100367.34;4990405;28;96830;-73
2021/04/11 08:23:53;;;;;;;22.60;19.35;;;;;;;13.28;37.86;100363.78;4987949;28;96967;-75
2021/04/11 08:26:56;;;;;;;23.02;19.05;;;;;;;13.35;37.95;100363.81;4988178;28;96936;-74
2021/04/11 08:29:38;;;;;;;29.25;21.63;;;;;;;13.43;37.33;100372.78;4993162;28;98774;-74
2021/04/11 08:32:18;;;;;;;42.70;26.65;;;;;;;13.53;37.23;100371.88;4987086;27;98767;-73
2021/04/11 08:35:09;;;;;;;33.33;21.83;;;;;;;13.63;37.59;100371.03;4990180;28;96935;-73
2021/04/11 08:38:13;;;;;;;26.25;18.65;;;;;;;13.74;37.57;100371.06;5003367;28;97285;-74
2021/04/11 08:40:52;;;;;;;30.92;21.38;;;;;;;13.86;37.42;100360.44;4969539;28;99618;-74
2021/04/11 08:43:26;;;;;;;28.38;22.08;;;;;;;13.96;37.09;100359.53;4985489;28;99714;-75
2021/04/11 08:46:09;;;;;;;24.60;20.13;;;;;;;14.09;36.98;100354.19;4988467;28;98640;-74
2021/04/11 08:48:44;;;;;;;22.05;18.63;;;;;;;14.19;36.93;100360.41;4989456;28;97249;-74
2021/04/11 08:51:23;;;;;;;25.05;18.83;;;;;;;14.32;36.97;100358.59;5003758;27;98750;-74
2021/04/11 08:53:56;;;;;;;22.13;17.77;;;;;;;14.42;36.52;100363.09;4990678;28;97692;-73
2021/04/11 08:56:28;;;;;;;22.30;17.70;;;;;;;14.45;36.41;100345.22;4988187;28;96953;-73
2021/04/11 08:59:01;;;;;;;29.80;21.08;;;;;;;14.51;36.49;100344.31;4990466;28;98263;-73
2021/04/11 09:01:40;;;;;;;22.95;18.90;;;;;;;14.64;36.37;100349.69;4989682;28;98852;-74
2021/04/11 09:04:17;;;;;;;23.08;17.25;;;;;;;14.75;36.12;100358.59;4991000;28;97920;-73
2021/04/11 09:07:23;;;;;;;18.13;15.80;;;;;;;14.87;36.22;100355.88;4988745;28;96895;-74
2021/04/11 09:10:14;;;;;;;20.70;15.75;;;;;;;14.94;35.67;100357.63;4988498;27;96789;-73
2021/04/11 09:12:52;;;;;;;34.80;28.20;;;;;;;15.00;35.76;100354.94;4993489;28;98167;-75
2021/04/11 09:15:26;;;;;;;22.73;17.63;;;;;;;15.05;35.69;100357.59;4995593;28;99059;-74
2021/04/11 09:18:13;;;;;;;25.20;21.13;;;;;;;14.96;36.28;100371.00;4986732;28;98067;-74
2021/04/11 09:20:46;;;;;;;20.77;16.98;;;;;;;15.21;35.88;100366.47;4987020;28;97246;-75
2021/04/11 09:23:22;;;;;;;20.27;15.57;;;;;;;15.27;35.75;100351.25;4988482;28;99510;-74
2021/04/11 09:25:58;;;;;;;19.08;15.25;;;;;;;15.26;35.58;100357.50;4990468;28;99240;-74
2021/04/11 09:28:48;;;;;;;22.38;15.30;;;;;;;15.27;35.86;100340.50;4989998;28;97856;-75
2021/04/11 09:31:31;;;;;;;23.88;16.63;;;;;;;15.28;35.43;100346.78;4990710;28;98628;-74
2021/04/11 09:34:27;;;;;;;16.98;15.05;;;;;;;15.33;35.38;100347.66;4989395;28;97811;-74
2021/04/11 09:37:04;;;;;;;18.45;15.95;;;;;;;15.33;35.38;100343.22;4973352;28;98982;-74
2021/04/11 09:39:45;;;;;;;18.20;16.00;;;;;;;15.36;35.73;100339.59;4989187;28;97427;-74
2021/04/11 09:42:53;;;;;;;18.67;16.02;;;;;;;15.46;35.65;100336.88;4988074;28;97340;-73
2021/04/11 09:45:39;;;;;;;22.40;17.23;;;;;;;15.46;35.67;100336.88;4947309;28;99158;-74
2021/04/11 09:48:28;;;;;;;26.33;19.27;;;;;;;15.59;35.42;100330.53;4945373;28;97248;-74
2021/04/11 09:51:07;;;;;;;21.58;16.73;;;;;;;15.60;35.29;100332.31;4985665;28;97103;-75
2021/04/11 09:54:00;;;;;;;18.98;15.95;;;;;;;15.68;35.28;100327.81;4996377;28;97122;-75
2021/04/11 09:56:50;;;;;;;15.93;13.60;;;;;;;15.81;35.18;100329.47;5013724;28;99336;-73
2021/04/11 09:59:40;;;;;;;15.07;13.23;;;;;;;15.92;35.45;100319.53;4990900;28;99641;-74
2021/04/11 10:02:18;;;;;;;13.32;11.05;;;;;;;16.01;34.82;100330.25;5002525;28;96826;-74
2021/04/11 10:04:50;;;;;;;16.27;11.32;;;;;;;16.14;34.75;100327.47;4994714;28;97068;-74
2021/04/11 10:07:28;;;;;;;16.10;12.15;;;;;;;16.28;35.04;100325.53;4989784;28;99474;-74
2021/04/11 10:10:08;;;;;;;13.15;11.77;;;;;;;16.42;34.45;100320.91;4989997;28;100408;-73
2021/04/11 10:12:55;;;;;;;13.18;11.80;;;;;;;16.57;34.27;100318.06;4991467;28;97298;-75
2021/04/11 10:15:28;;;;;;;13.35;11.45;;;;;;;16.66;34.31;100324.25;4990861;28;96742;-74
2021/04/11 10:18:14;;;;;;;13.40;11.30;;;;;;;16.82;34.23;100316.91;4987835;28;98153;-74
2021/04/11 10:20:46;;;;;;;11.75;10.52;;;;;;;16.93;34.32;100323.06;4991969;28;97614;-74
2021/04/11 10:23:18;;;;;;;11.57;8.80;;;;;;;16.96;33.72;100331.97;4971076;28;98119;-74
2021/04/11 10:25:49;;;;;;;8.88;6.90;;;;;;;16.95;33.26;100323.94;4991041;28;96971;-74
2021/04/11 10:28:21;;;;;;;5.53;5.13;;;;;;;16.98;33.67;100321.22;4989828;28;97675;-74
2021/04/11 10:30:56;;;;;;;5.85;5.38;;;;;;;17.04;33.22;100316.66;4988077;28;97823;-74
2021/04/11 10:33:27;;;;;;;5.97;5.38;;;;;;;17.07;33.47;100315.75;4971670;28;96877;-73
2021/04/11 10:35:59;;;;;;;4.95;4.50;;;;;;;17.17;33.21;100320.06;4988328;28;97223;-74
2021/04/11 10:38:29;;;;;;;4.30;3.90;;;;;;;17.17;33.19;100313.78;4970165;28;100792;-74
2021/04/11 10:41:08;;;;;;;4.45;4.00;;;;;;;17.20;32.72;100317.31;4987467;28;99003;-75
2021/04/11 10:43:56;;;;;;;3.95;3.65;;;;;;;17.24;31.18;100313.69;4990952;28;97078;-74
2021/04/11 10:46:24;;;;;;;4.65;4.03;;;;;;;17.29;33.12;100316.34;4987790;28;97450;-74
2021/04/11 10:49:04;;;;;;;4.93;4.43;;;;;;;17.32;32.28;100317.19;4987966;28;97708;-74
2021/04/11 10:51:53;;;;;;;9.60;4.88;;;;;;;17.29;32.24;100327.09;4989357;28;98355;-73
2021/04/11 10:54:29;;;;;;;4.53;4.20;;;;;;;17.28;32.96;100323.50;4999193;28;98361;-73
2021/04/11 10:57:11;;;;;;;4.57;3.75;;;;;;;17.37;32.60;100322.47;4973127;28;97963;-74
2021/04/11 10:59:54;;;;;;;4.78;3.53;;;;;;;17.41;32.48;100327.84;4987824;28;98912;-74
2021/04/11 11:02:55;;;;;;;3.75;3.40;;;;;;;17.47;31.74;100311.63;4971653;28;98699;-74
2021/04/11 11:05:30;;;;;;;3.80;3.60;;;;;;;17.50;31.65;100313.38;5020849;27;96841;-74
2021/04/11 11:08:08;;;;;;;3.85;3.25;;;;;;;17.63;32.25;100305.09;5020701;27;98639;-74
2021/04/11 11:10:44;;;;;;;3.40;3.10;;;;;;;17.70;31.76;100303.19;4982234;28;97792;-74
2021/04/11 11:13:26;;;;;;;5.63;3.78;;;;;;;17.64;31.01;100328.38;4987216;28;97913;-74
2021/04/11 11:16:02;;;;;;;4.32;3.92;;;;;;;17.62;31.68;100321.28;4986119;28;97984;-75
2021/04/11 11:18:51;;;;;;;4.18;3.83;;;;;;;17.60;31.51;100334.72;4987018;28;97049;-74
2021/04/11 11:21:44;;;;;;;3.70;3.45;;;;;;;17.54;31.74;100324.06;4989372;28;96632;-74
2021/04/11 11:24:21;;;;;;;3.90;3.60;;;;;;;17.45;30.64;100356.50;5003320;28;99780;-74
2021/04/11 11:27:02;;;;;;;3.55;3.25;;;;;;;17.46;32.00;100346.59;4989333;28;97648;-73
2021/04/11 11:29:56;;;;;;;4.00;3.70;;;;;;;17.41;31.79;100338.59;4989576;28;97677;-73
2021/04/11 11:32:28;;;;;;;4.10;3.50;;;;;;;17.39;32.47;100337.72;4989078;28;100792;-74
2021/04/11 11:34:59;;;;;;;5.28;4.30;;;;;;;17.40;32.35;100338.63;4972120;28;100696;-74
2021/04/11 11:37:46;;;;;;;4.82;4.43;;;;;;;17.53;31.67;100337.56;5017977;28;97035;-73
2021/04/11 11:40:20;;;;;;;5.43;4.00;;;;;;;17.58;32.07;100331.16;5021303;27;97014;-74
2021/04/11 11:43:16;;;;;;;6.95;5.25;;;;;;;17.67;31.30;100325.69;4988894;28;100666;-73
2021/04/11 11:45:52;;;;;;;4.53;4.10;;;;;;;17.73;31.36;100320.19;4981560;28;100613;-73
2021/04/11 11:48:27;;;;;;;4.32;3.90;;;;;;;17.76;31.68;100321.94;4989142;28;96876;-74
2021/04/11 11:50:58;;;;;;;4.60;4.20;;;;;;;17.75;31.87;100322.84;4989374;28;97337;-74
2021/04/11 11:53:27;;;;;;;4.78;4.32;;;;;;;17.76;31.53;100322.84;4990131;28;97302;-74
2021/04/11 11:56:05;;;;;;;4.03;3.63;;;;;;;17.83;31.02;100334.38;4990704;28;97723;-74